Time;durP1;ratioP1;P1;durP2;ratioP2;P2;SDS_P1;SDS_P2;PMS_P1;PMS_P2;Temp;Humidity;BMP_temperature;BMP_pressure;BME280_temperature;BME280_humidity;BME280_pressure;Samples;Min_cycle;Max_cycle;Signal;HPM_P1;HPM_P2
2021/12/02 00:00:24;;;;;;;1.13;1.05;;;7.60;79.90;;;;;;5050494;28;20716;-89
2021/12/02 00:02:51;;;;;;;1.10;1.00;;;7.50;80.00;;;;;;5042034;28;20220;-91
2021/12/02 00:05:29;;;;;;;1.25;1.05;;;7.60;80.00;;;;;;5042931;28;20579;-87
2021/12/02 00:07:56;;;;;;;1.33;1.23;;;7.60;79.80;;;;;;5043079;28;20637;-87
2021/12/02 00:10:27;;;;;;;1.30;1.20;;;7.50;79.60;;;;;;5037993;28;20227;-86
2021/12/02 00:12:57;;;;;;;0.90;0.90;;;7.60;79.50;;;;;;5044334;28;20599;-89
2021/12/02 00:15:28;;;;;;;1.60;1.27;;;7.70;78.70;;;;;;5045343;28;20214;-87
2021/12/02 00:18:07;;;;;;;1.08;1.00;;;7.60;78.60;;;;;;5048548;28;20226;-86
2021/12/02 00:23:34;;;;;;;0.97;0.97;;;7.50;78.70;;;;;;5054310;28;20197;-89
2021/12/02 00:26:03;;;;;;;1.23;1.13;;;7.60;78.50;;;;;;5053457;28;20237;-87
2021/12/02 00:28:32;;;;;;;0.70;0.70;;;7.50;78.90;;;;;;5041531;28;20194;-86
2021/12/02 00:31:01;;;;;;;0.97;0.97;;;7.50;78.30;;;;;;5053841;28;20296;-87
2021/12/02 00:33:31;;;;;;;0.97;0.97;;;7.50;78.50;;;;;;5042894;28;20191;-87
2021/12/02 00:35:59;;;;;;;0.83;0.83;;;7.60;78.30;;;;;;5055782;28;20224;-87
2021/12/02 00:38:27;;;;;;;1.07;1.00;;;7.50;78.60;;;;;;5046704;28;20197;-88
2021/12/02 00:40:55;;;;;;;1.20;1.10;;;7.60;78.90;;;;;;5028899;28;20238;-91
2021/12/02 00:43:22;;;;;;;1.00;1.00;;;7.50;79.00;;;;;;5046031;28;20705;-86
2021/12/02 00:45:50;;;;;;;1.10;1.00;;;7.50;78.90;;;;;;5047959;28;20229;-89
2021/12/02 00:48:18;;;;;;;1.17;1.07;;;7.50;79.10;;;;;;5050369;28;20620;-87
2021/12/02 00:50:48;;;;;;;0.83;0.83;;;7.40;79.60;;;;;;5051181;28;20226;-86
2021/12/02 00:53:20;;;;;;;0.77;0.77;;;7.50;79.20;;;;;;5047743;28;20281;-87
2021/12/02 00:55:50;;;;;;;0.93;0.93;;;7.50;78.70;;;;;;5025282;28;20228;-87
2021/12/02 00:58:20;;;;;;;0.93;0.93;;;7.40;79.00;;;;;;5055760;28;20246;-85
2021/12/02 01:00:52;;;;;;;0.97;0.97;;;7.40;78.60;;;;;;5048801;28;20232;-87
2021/12/02 01:03:21;;;;;;;0.87;0.87;;;7.40;79.00;;;;;;5056434;28;20194;-83
2021/12/02 01:05:48;;;;;;;0.87;0.87;;;7.30;78.50;;;;;;5047664;28;20266;-87
2021/12/02 01:08:16;;;;;;;0.80;0.80;;;7.30;78.40;;;;;;5049282;28;20221;-87
2021/12/02 01:10:43;;;;;;;0.90;0.90;;;7.20;78.60;;;;;;5042964;28;20231;-89
2021/12/02 01:13:10;;;;;;;1.00;0.90;;;7.20;78.80;;;;;;5040764;28;20663;-87
2021/12/02 01:15:37;;;;;;;1.07;1.00;;;7.20;78.90;;;;;;5047166;28;20222;-87
2021/12/02 01:18:06;;;;;;;0.80;0.80;;;7.10;78.50;;;;;;5050286;28;20194;-87
2021/12/02 01:20:33;;;;;;;1.23;0.83;;;7.00;80.00;;;;;;5043119;28;20237;-86
2021/12/02 01:23:02;;;;;;;0.90;0.90;;;7.00;80.00;;;;;;5029505;28;20223;-86
2021/12/02 01:25:31;;;;;;;0.90;0.90;;;6.90;80.60;;;;;;5041181;28;20232;-87
2021/12/02 01:27:59;;;;;;;0.93;0.93;;;6.80;80.40;;;;;;5029616;28;20261;-86
2021/12/02 01:30:27;;;;;;;1.23;1.20;;;6.80;80.80;;;;;;5052089;28;20319;-86
2021/12/02 01:32:57;;;;;;;1.33;1.10;;;6.70;81.10;;;;;;5050535;28;20209;-87
2021/12/02 01:35:27;;;;;;;0.90;0.90;;;6.70;81.60;;;;;;5047318;28;20224;-86
2021/12/02 01:37:55;;;;;;;0.80;0.80;;;6.60;82.10;;;;;;5046643;28;20217;-86
2021/12/02 01:40:22;;;;;;;1.03;0.90;;;6.70;81.60;;;;;;5043656;28;20229;-87
2021/12/02 01:42:55;;;;;;;1.27;1.00;;;6.60;81.50;;;;;;5046887;28;20208;-88
2021/12/02 01:45:24;;;;;;;1.20;0.90;;;6.40;82.20;;;;;;5042445;28;20241;-87
2021/12/02 01:47:53;;;;;;;1.50;1.10;;;6.40;83.10;;;;;;5039071;28;20203;-87
2021/12/02 01:50:22;;;;;;;1.10;1.00;;;6.40;81.70;;;;;;5045181;28;20236;-86
2021/12/02 01:52:56;;;;;;;1.47;1.30;;;6.50;81.80;;;;;;5047443;28;20205;-84
2021/12/02 01:55:25;;;;;;;0.90;0.90;;;6.50;82.10;;;;;;5050021;28;20217;-84
2021/12/02 01:57:59;;;;;;;1.20;1.10;;;6.40;82.10;;;;;;5053825;28;20221;-87
2021/12/02 02:00:28;;;;;;;2.10;0.97;;;6.40;82.20;;;;;;5046354;28;20264;-87
2021/12/02 02:02:56;;;;;;;0.90;0.90;;;6.30;82.80;;;;;;5044492;28;20210;-86
2021/12/02 02:05:23;;;;;;;0.87;0.87;;;6.30;83.10;;;;;;5051023;28;20234;-86
2021/12/02 02:07:59;;;;;;;1.60;1.07;;;6.40;82.50;;;;;;5040894;28;20203;-86
2021/12/02 02:10:28;;;;;;;1.33;1.13;;;6.30;83.20;;;;;;5050700;28;20240;-86
2021/12/02 02:12:58;;;;;;;1.30;1.20;;;6.30;83.40;;;;;;5050990;28;20198;-87
2021/12/02 02:15:27;;;;;;;1.33;1.23;;;6.40;83.30;;;;;;5021244;28;20252;-88
2021/12/02 02:17:57;;;;;;;1.30;1.20;;;6.40;83.30;;;;;;5044638;28;20653;-86
2021/12/02 02:20:37;;;;;;;1.20;1.10;;;6.40;83.70;;;;;;5041348;28;20225;-85
2021/12/02 02:23:06;;;;;;;2.30;1.10;;;6.40;83.70;;;;;;5045904;28;20197;-87
2021/12/02 02:25:34;;;;;;;1.70;1.20;;;6.40;84.10;;;;;;5047174;28;20689;-86
2021/12/02 02:28:01;;;;;;;1.33;1.23;;;6.40;85.50;;;;;;5052545;28;20249;-87
2021/12/02 02:30:28;;;;;;;1.63;1.27;;;6.40;84.90;;;;;;5041742;28;20234;-88
2021/12/02 02:32:55;;;;;;;2.20;1.27;;;6.40;85.00;;;;;;5052297;28;20206;-89
2021/12/02 02:35:22;;;;;;;1.63;1.20;;;6.40;84.10;;;;;;5055536;28;20257;-86
2021/12/02 02:37:51;;;;;;;1.27;1.17;;;6.50;83.50;;;;;;5034827;28;20202;-86
2021/12/02 02:40:18;;;;;;;2.10;1.23;;;6.70;82.90;;;;;;5031256;28;20685;-85
2021/12/02 02:42:48;;;;;;;1.53;1.20;;;6.70;82.70;;;;;;5043697;28;20286;-89
2021/12/02 02:45:16;;;;;;;1.80;1.10;;;6.60;83.00;;;;;;5022529;28;20313;-88
2021/12/02 02:47:43;;;;;;;1.07;0.97;;;6.70;83.20;;;;;;5047292;28;20641;-87
2021/12/02 02:50:13;;;;;;;1.57;1.47;;;6.80;81.60;;;;;;5044690;28;20202;-89
2021/12/02 02:52:40;;;;;;;1.40;1.30;;;6.80;82.10;;;;;;5045803;28;20205;-89
2021/12/02 02:55:12;;;;;;;1.47;1.37;;;6.80;83.30;;;;;;5045680;28;20200;-88
2021/12/02 02:57:44;;;;;;;1.70;1.20;;;6.80;82.90;;;;;;5050365;28;20209;-88
2021/12/02 03:00:16;;;;;;;2.00;1.70;;;6.80;81.80;;;;;;5040801;28;20196;-85
2021/12/02 03:02:51;;;;;;;2.10;1.33;;;6.80;82.50;;;;;;5043719;28;20197;-85
2021/12/02 03:05:24;;;;;;;1.77;1.20;;;6.80;83.50;;;;;;5052227;28;20221;-85
2021/12/02 03:07:55;;;;;;;1.30;1.20;;;6.60;85.40;;;;;;5055183;28;20194;-85
2021/12/02 03:10:32;;;;;;;2.10;1.20;;;6.60;87.50;;;;;;5056346;28;20229;-85
2021/12/02 03:13:10;;;;;;;2.00;1.40;;;6.60;88.10;;;;;;5054396;28;20649;-85
2021/12/02 03:18:23;;;;;;;2.70;1.67;;;6.50;90.80;;;;;;5046961;28;20205;-86
2021/12/02 03:20:50;;;;;;;1.50;1.30;;;6.30;91.80;;;;;;5056100;28;20233;-85
2021/12/02 03:23:17;;;;;;;2.50;1.60;;;6.20;92.40;;;;;;5055737;28;20190;-90
2021/12/02 03:25:46;;;;;;;2.40;1.60;;;6.10;93.10;;;;;;5051346;28;20230;-88
2021/12/02 03:28:13;;;;;;;2.20;1.50;;;6.20;93.10;;;;;;5047587;28;20194;-87
2021/12/02 03:30:40;;;;;;;1.30;1.20;;;6.20;92.80;;;;;;5045154;28;20232;-87
2021/12/02 03:33:07;;;;;;;1.20;1.10;;;6.30;93.20;;;;;;5045576;28;20212;-88
2021/12/02 03:35:34;;;;;;;1.60;1.00;;;6.30;92.70;;;;;;5052737;28;20237;-86
2021/12/02 03:38:02;;;;;;;0.97;0.90;;;6.20;92.00;;;;;;5047207;28;20206;-85
2021/12/02 03:40:29;;;;;;;1.13;0.87;;;6.10;91.80;;;;;;5050398;28;20808;-86
2021/12/02 03:42:57;;;;;;;1.10;0.70;;;6.00;92.40;;;;;;5049751;28;20209;-85
2021/12/02 03:45:25;;;;;;;0.60;0.60;;;5.70;93.10;;;;;;5046454;28;20705;-86
2021/12/02 03:47:53;;;;;;;1.07;0.83;;;5.50;94.00;;;;;;5042080;28;20201;-88
2021/12/02 03:50:20;;;;;;;1.17;0.80;;;5.30;94.90;;;;;;5040232;28;20234;-86
2021/12/02 03:52:47;;;;;;;0.80;0.67;;;5.20;95.10;;;;;;5044294;28;20222;-86
2021/12/02 03:55:14;;;;;;;1.03;0.80;;;5.10;95.40;;;;;;5047746;28;20707;-87
2021/12/02 03:57:41;;;;;;;0.97;0.77;;;4.90;95.30;;;;;;5047051;28;20202;-86
2021/12/02 04:00:10;;;;;;;0.83;0.83;;;4.80;95.70;;;;;;5042488;28;20197;-86
2021/12/02 04:02:37;;;;;;;1.07;0.73;;;4.80;96.00;;;;;;5055937;28;20208;-86
2021/12/02 04:05:05;;;;;;;1.17;0.80;;;4.70;96.30;;;;;;5049507;28;20392;-86
2021/12/02 04:07:32;;;;;;;1.37;0.90;;;4.70;96.50;;;;;;5048135;28;20203;-86
2021/12/02 04:10:01;;;;;;;1.00;0.70;;;4.70;97.10;;;;;;5051357;28;20202;-86
2021/12/02 04:12:33;;;;;;;2.60;1.00;;;4.70;97.10;;;;;;5048600;28;20218;-86
2021/12/02 04:15:03;;;;;;;1.03;0.90;;;4.70;97.50;;;;;;5052325;28;20201;-86
2021/12/02 04:17:42;;;;;;;1.70;0.70;;;4.80;97.20;;;;;;5046778;28;20195;-85
2021/12/02 04:20:12;;;;;;;0.90;0.90;;;4.80;97.50;;;;;;5051887;28;20284;-85
2021/12/02 04:22:39;;;;;;;2.47;0.80;;;4.70;97.60;;;;;;5055315;28;20201;-87
2021/12/02 04:25:08;;;;;;;1.00;0.80;;;4.80;97.60;;;;;;5049736;28;20202;-86
2021/12/02 04:27:36;;;;;;;2.73;0.97;;;4.70;97.60;;;;;;5053670;28;20198;-86
2021/12/02 04:30:06;;;;;;;1.50;0.90;;;4.70;97.70;;;;;;5040999;28;20199;-86
2021/12/02 04:32:34;;;;;;;1.93;0.77;;;4.80;97.80;;;;;;5052060;28;20218;-86
2021/12/02 04:35:01;;;;;;;0.77;0.77;;;4.90;97.70;;;;;;5040490;28;20199;-86
2021/12/02 04:37:29;;;;;;;1.03;0.77;;;5.00;97.80;;;;;;5047724;28;20194;-86
2021/12/02 04:39:56;;;;;;;1.23;0.80;;;5.00;97.70;;;;;;5044636;28;20716;-87
2021/12/02 04:42:23;;;;;;;1.10;0.87;;;5.10;97.20;;;;;;5050010;28;20202;-86
2021/12/02 04:44:51;;;;;;;0.90;0.90;;;5.10;97.30;;;;;;5047414;28;20711;-86
2021/12/02 04:47:18;;;;;;;1.93;0.90;;;5.10;97.20;;;;;;5044829;28;20230;-86
2021/12/02 04:49:46;;;;;;;1.37;0.80;;;5.10;97.40;;;;;;5047424;28;20666;-89
2021/12/02 04:52:13;;;;;;;1.47;1.10;;;5.10;97.70;;;;;;5049315;28;20221;-86
2021/12/02 04:54:41;;;;;;;2.70;1.07;;;5.10;97.70;;;;;;5046704;28;20299;-86
2021/12/02 04:57:08;;;;;;;1.33;1.00;;;5.20;97.50;;;;;;5049338;28;20217;-86
2021/12/02 04:59:35;;;;;;;1.10;1.00;;;5.10;97.30;;;;;;5048329;28;20205;-88
2021/12/02 05:02:02;;;;;;;3.63;1.10;;;5.10;97.70;;;;;;5049786;28;20214;-87
2021/12/02 05:04:29;;;;;;;1.03;0.87;;;5.20;97.40;;;;;;5048581;28;20202;-87
2021/12/02 05:06:57;;;;;;;1.13;1.03;;;5.30;97.20;;;;;;5046381;28;20235;-88
2021/12/02 05:09:24;;;;;;;1.00;0.90;;;5.30;97.10;;;;;;5055782;28;20644;-87
2021/12/02 05:11:51;;;;;;;1.27;1.00;;;5.20;96.90;;;;;;5052147;28;20244;-90
2021/12/02 05:14:18;;;;;;;1.83;1.03;;;5.20;97.00;;;;;;5050109;28;20664;-88
2021/12/02 05:16:45;;;;;;;2.80;1.30;;;5.20;97.30;;;;;;5041695;28;20229;-88
2021/12/02 05:19:12;;;;;;;1.37;1.10;;;5.20;97.60;;;;;;5040158;28;20564;-87
2021/12/02 05:21:39;;;;;;;1.10;1.00;;;5.40;97.60;;;;;;5048576;28;20221;-89
2021/12/02 05:24:08;;;;;;;1.63;1.23;;;5.50;97.20;;;;;;5049321;28;20220;-88
2021/12/02 05:26:36;;;;;;;1.87;1.20;;;5.50;97.00;;;;;;5049390;28;20245;-87
2021/12/02 05:29:03;;;;;;;2.53;1.27;;;5.60;96.90;;;;;;5051987;28;20198;-88
2021/12/02 05:31:30;;;;;;;1.50;1.23;;;5.50;96.70;;;;;;5038518;28;20230;-88
2021/12/02 05:33:57;;;;;;;2.70;1.27;;;5.30;97.00;;;;;;5049287;28;20202;-87
2021/12/02 05:36:24;;;;;;;1.77;1.10;;;5.50;97.30;;;;;;5042665;28;20222;-87
2021/12/02 05:38:51;;;;;;;1.40;1.30;;;5.60;96.90;;;;;;5052660;28;20578;-87
2021/12/02 05:41:20;;;;;;;1.50;1.37;;;5.50;96.80;;;;;;5045251;28;20716;-89
2021/12/02 05:43:47;;;;;;;1.60;1.47;;;5.50;97.10;;;;;;5052122;28;20570;-88
2021/12/02 05:46:14;;;;;;;2.13;1.50;;;5.50;97.10;;;;;;5043928;28;20217;-88
2021/12/02 05:48:41;;;;;;;2.90;2.03;;;5.50;96.90;;;;;;5048491;28;20199;-87
2021/12/02 05:51:16;;;;;;;1.27;1.20;;;5.50;96.60;;;;;;5050459;28;20617;-89
2021/12/02 05:53:43;;;;;;;2.70;1.40;;;5.50;96.80;;;;;;5046259;28;20197;-87
2021/12/02 05:56:11;;;;;;;2.73;1.60;;;5.60;96.50;;;;;;5044276;28;20230;-86
2021/12/02 05:58:39;;;;;;;3.30;1.60;;;5.50;96.50;;;;;;5049472;28;20202;-86
2021/12/02 06:01:06;;;;;;;2.57;1.60;;;5.30;97.00;;;;;;5039121;28;20221;-86
2021/12/02 06:03:36;;;;;;;2.77;1.70;;;5.40;97.20;;;;;;5049895;28;20198;-86
2021/12/02 06:06:03;;;;;;;2.50;1.70;;;5.40;97.40;;;;;;5046391;28;20230;-86
2021/12/02 06:08:30;;;;;;;1.50;1.40;;;5.40;97.00;;;;;;5052604;28;20197;-87
2021/12/02 06:10:57;;;;;;;1.80;1.33;;;5.40;96.90;;;;;;5048387;28;21252;-85
2021/12/02 06:13:26;;;;;;;2.70;1.50;;;5.40;96.90;;;;;;5044850;28;20222;-87
2021/12/02 06:15:54;;;;;;;2.80;1.40;;;5.30;96.70;;;;;;5046237;28;20241;-85
2021/12/02 06:18:23;;;;;;;1.80;1.50;;;5.30;96.50;;;;;;5047242;28;20199;-86
2021/12/02 06:20:53;;;;;;;3.63;1.43;;;5.20;96.50;;;;;;5047339;28;20225;-85
2021/12/02 06:23:20;;;;;;;1.50;1.20;;;5.20;96.70;;;;;;5043465;28;20303;-84
2021/12/02 06:25:48;;;;;;;1.30;1.20;;;5.20;96.40;;;;;;5042759;28;20234;-87
2021/12/02 06:28:16;;;;;;;2.10;1.40;;;5.30;96.00;;;;;;5047907;28;20781;-84
2021/12/02 06:30:43;;;;;;;2.73;1.73;;;5.40;95.50;;;;;;5048388;28;20241;-86
2021/12/02 06:33:29;;;;;;;1.30;1.20;;;5.40;95.80;;;;;;5047185;28;20226;-86
2021/12/02 06:35:56;;;;;;;1.40;1.30;;;5.30;95.70;;;;;;5043888;28;20224;-88
2021/12/02 06:38:23;;;;;;;1.20;1.10;;;5.30;95.60;;;;;;5050295;28;20214;-87
2021/12/02 06:40:51;;;;;;;1.40;1.30;;;5.30;95.20;;;;;;5046890;28;20257;-86
2021/12/02 06:43:19;;;;;;;1.33;1.20;;;5.40;95.40;;;;;;5037727;28;20226;-86
2021/12/02 06:45:46;;;;;;;1.57;1.17;;;5.40;95.10;;;;;;5046386;28;20584;-85
2021/12/02 06:48:13;;;;;;;3.43;1.37;;;5.40;94.80;;;;;;5041804;28;20554;-86
2021/12/02 06:50:43;;;;;;;1.47;1.20;;;5.40;94.70;;;;;;5044896;28;20255;-86
2021/12/02 06:53:10;;;;;;;4.93;1.13;;;5.40;94.20;;;;;;5041346;28;20226;-86
2021/12/02 06:55:37;;;;;;;1.20;1.10;;;5.50;93.80;;;;;;5040014;28;20316;-85
2021/12/02 06:58:03;;;;;;;1.87;1.37;;;5.50;93.50;;;;;;5048559;28;20210;-86
2021/12/02 07:00:30;;;;;;;1.70;1.20;;;5.50;92.90;;;;;;5036381;28;20228;-86
2021/12/02 07:02:57;;;;;;;1.27;1.10;;;5.50;91.80;;;;;;5042618;28;20202;-85
2021/12/02 07:05:25;;;;;;;1.57;1.20;;;5.40;91.70;;;;;;5037569;28;20231;-85
2021/12/02 07:07:53;;;;;;;1.50;1.30;;;5.40;92.00;;;;;;5048338;28;20573;-85
2021/12/02 07:10:24;;;;;;;1.50;1.00;;;5.50;91.60;;;;;;5024331;28;20231;-86
2021/12/02 07:12:56;;;;;;;2.83;1.50;;;5.50;91.50;;;;;;5042012;28;20226;-85
2021/12/02 07:15:27;;;;;;;2.90;1.57;;;5.40;91.60;;;;;;5040196;28;20225;-88
2021/12/02 07:17:56;;;;;;;1.27;1.17;;;5.20;91.50;;;;;;5046973;28;20204;-85
2021/12/02 07:20:23;;;;;;;1.53;1.17;;;5.20;91.10;;;;;;5042698;28;20882;-84
2021/12/02 07:22:53;;;;;;;2.07;1.53;;;5.20;90.80;;;;;;5046426;28;20202;-85
2021/12/02 07:25:20;;;;;;;1.97;1.30;;;5.10;91.50;;;;;;5048587;28;20232;-85
2021/12/02 07:27:48;;;;;;;1.47;1.37;;;5.10;91.20;;;;;;5043246;28;20214;-87
2021/12/02 07:30:16;;;;;;;2.07;1.10;;;5.20;90.70;;;;;;5047114;28;20206;-86
2021/12/02 07:32:46;;;;;;;4.00;1.23;;;5.20;90.50;;;;;;5040151;28;20233;-86
2021/12/02 07:35:15;;;;;;;2.20;1.43;;;5.30;90.40;;;;;;5046682;28;20198;-86
2021/12/02 07:37:45;;;;;;;2.40;1.47;;;5.40;90.10;;;;;;5050548;28;20194;-84
2021/12/02 07:40:15;;;;;;;2.00;1.40;;;5.40;89.30;;;;;;5049298;28;20207;-84
2021/12/02 07:42:42;;;;;;;1.60;1.30;;;5.40;89.20;;;;;;5046899;28;20202;-84
2021/12/02 07:45:22;;;;;;;2.03;1.40;;;5.40;90.20;;;;;;5047025;28;20229;-84
2021/12/02 07:47:49;;;;;;;3.30;1.57;;;5.40;90.40;;;;;;5039698;28;20253;-85
2021/12/02 07:50:18;;;;;;;2.37;1.47;;;5.30;90.70;;;;;;5049800;28;20256;-84
2021/12/02 07:52:49;;;;;;;4.17;1.10;;;5.30;90.50;;;;;;5040654;28;20223;-86
2021/12/02 07:55:18;;;;;;;2.20;1.60;;;5.20;90.40;;;;;;5043965;28;20198;-86
2021/12/02 07:57:46;;;;;;;1.30;1.20;;;5.30;89.10;;;;;;5028758;28;20217;-84
2021/12/02 08:00:15;;;;;;;2.70;1.40;;;5.30;90.10;;;;;;5044710;28;20201;-87
2021/12/02 08:02:44;;;;;;;1.20;1.10;;;5.40;89.30;;;;;;5041423;28;20193;-86
2021/12/02 08:05:12;;;;;;;1.63;1.20;;;5.40;89.70;;;;;;5045025;28;20257;-85
2021/12/02 08:07:39;;;;;;;2.30;1.30;;;5.40;89.80;;;;;;5044678;28;20199;-86
2021/12/02 08:10:08;;;;;;;1.57;1.30;;;5.30;90.00;;;;;;5043431;28;20605;-85
2021/12/02 08:12:38;;;;;;;2.20;1.27;;;5.30;90.20;;;;;;5027272;28;20648;-86
2021/12/02 08:15:06;;;;;;;2.27;1.60;;;5.30;90.00;;;;;;5049669;28;20812;-87
2021/12/02 08:17:34;;;;;;;2.90;1.30;;;5.40;89.20;;;;;;5049468;28;20194;-87
2021/12/02 08:20:01;;;;;;;2.63;1.40;;;5.40;89.20;;;;;;5030622;28;20205;-85
2021/12/02 08:22:32;;;;;;;1.40;1.30;;;5.60;89.40;;;;;;5048396;28;20667;-88
2021/12/02 08:24:59;;;;;;;1.63;1.40;;;5.70;87.70;;;;;;5037687;28;20660;-89
2021/12/02 08:27:27;;;;;;;1.30;1.20;;;5.80;86.90;;;;;;5048143;28;20229;-89
2021/12/02 08:30:02;;;;;;;2.43;1.40;;;6.00;85.80;;;;;;5047592;28;20661;-88
2021/12/02 08:32:30;;;;;;;2.07;1.00;;;6.00;85.30;;;;;;5048882;28;20217;-89
2021/12/02 08:34:59;;;;;;;2.17;1.40;;;6.10;84.00;;;;;;5054407;28;20206;-89
2021/12/02 08:37:28;;;;;;;2.23;1.43;;;6.30;83.30;;;;;;5047818;28;20228;-89
2021/12/02 08:39:59;;;;;;;2.40;1.30;;;6.50;82.60;;;;;;5023810;28;20206;-87
2021/12/02 08:42:31;;;;;;;3.13;1.50;;;6.60;80.30;;;;;;5051174;28;20297;-86
2021/12/02 08:44:59;;;;;;;1.25;1.15;;;7.00;78.20;;;;;;5057334;28;20228;-86
2021/12/02 08:47:28;;;;;;;2.55;1.10;;;7.30;77.00;;;;;;5057432;28;20206;-85
2021/12/02 08:49:57;;;;;;;2.75;1.40;;;7.30;74.30;;;;;;5054133;28;20206;-84
2021/12/02 08:52:27;;;;;;;1.67;1.23;;;7.20;74.50;;;;;;5053958;28;20229;-84
2021/12/02 08:54:55;;;;;;;1.80;1.25;;;7.20;74.80;;;;;;5052328;28;20703;-85
2021/12/02 08:57:24;;;;;;;1.88;1.20;;;7.60;76.30;;;;;;5054019;28;20222;-88
2021/12/02 08:59:51;;;;;;;1.27;1.10;;;8.40;73.30;;;;;;5059499;28;20285;-87
2021/12/02 09:02:19;;;;;;;3.95;1.23;;;9.00;59.80;;;;;;5036968;28;20229;-88
2021/12/02 09:04:48;;;;;;;2.47;1.27;;;8.80;57.80;;;;;;5055704;28;20190;-89
2021/12/02 09:07:16;;;;;;;1.75;1.20;;;8.30;58.20;;;;;;5052907;28;20229;-90
2021/12/02 09:09:48;;;;;;;1.88;1.23;;;7.90;59.60;;;;;;5059046;28;20210;-89
2021/12/02 09:12:15;;;;;;;2.03;1.20;;;7.70;65.80;;;;;;5043705;28;20579;-89
2021/12/02 09:14:42;;;;;;;1.70;1.30;;;7.50;69.70;;;;;;5038144;28;20198;-87
2021/12/02 09:17:11;;;;;;;2.95;1.30;;;7.30;70.40;;;;;;5042690;28;20230;-89
2021/12/02 09:19:39;;;;;;;1.90;0.95;;;7.30;72.20;;;;;;5047684;28;20537;-90
2021/12/02 09:22:07;;;;;;;2.50;1.30;;;7.30;70.00;;;;;;5056138;28;20226;-90
2021/12/02 09:24:34;;;;;;;1.90;1.42;;;7.10;67.60;;;;;;5049955;28;20199;-89
2021/12/02 09:27:01;;;;;;;2.65;1.33;;;7.10;69.80;;;;;;5051964;28;20264;-86
2021/12/02 09:29:36;;;;;;;1.83;0.98;;;7.20;68.60;;;;;;5061627;28;20208;-87
2021/12/02 09:32:04;;;;;;;3.50;1.30;;;7.80;65.50;;;;;;5054600;28;20221;-88
2021/12/02 09:34:32;;;;;;;2.47;1.48;;;8.30;62.00;;;;;;5049387;28;20233;-87
2021/12/02 09:37:00;;;;;;;3.67;1.20;;;8.90;57.30;;;;;;5063147;28;20234;-88
2021/12/02 09:39:31;;;;;;;1.67;1.13;;;10.00;48.40;;;;;;5050665;28;20202;-87
2021/12/02 09:41:59;;;;;;;2.47;1.00;;;10.30;41.20;;;;;;5067600;28;20230;-90
2021/12/02 09:44:30;;;;;;;2.92;1.25;;;10.40;41.30;;;;;;5063158;23;20230;-91
2021/12/02 09:47:18;;;;;;;2.00;1.08;;;9.90;42.80;;;;;;5024752;28;20303;-90
2021/12/02 09:49:46;;;;;;;4.13;1.02;;;9.20;44.90;;;;;;5041566;28;20198;-92
2021/12/02 09:52:14;;;;;;;2.40;1.35;;;8.90;48.80;;;;;;5037425;28;20249;-91
2021/12/02 09:54:58;;;;;;;3.53;1.00;;;8.60;49.30;;;;;;5057621;28;20777;-90
2021/12/02 09:57:32;;;;;;;2.80;1.30;;;8.10;53.00;;;;;;5037331;28;20217;-91
2021/12/02 09:59:59;;;;;;;4.35;1.10;;;7.90;56.70;;;;;;5057663;28;20201;-88
2021/12/02 10:02:29;;;;;;;2.20;1.23;;;7.70;59.60;;;;;;5054097;28;20226;-88
2021/12/02 10:04:59;;;;;;;3.85;1.40;;;7.70;60.30;;;;;;5047319;28;20208;-88
2021/12/02 10:07:35;;;;;;;1.50;1.20;;;7.60;58.80;;;;;;5032220;28;20217;-92
2021/12/02 10:10:39;;;;;;;3.92;1.50;;;7.40;62.20;;;;;;5055251;28;20264;-89
2021/12/02 10:16:11;;;;;;;3.53;1.40;;;7.40;63.20;;;;;;5045618;28;20778;-88
2021/12/02 10:18:49;;;;;;;5.43;1.50;;;7.20;64.30;;;;;;5052039;28;20244;-88
2021/12/02 10:21:21;;;;;;;4.43;1.50;;;7.30;64.50;;;;;;5054593;28;20523;-90
2021/12/02 10:23:49;;;;;;;6.27;1.60;;;7.40;67.00;;;;;;5053591;28;20216;-89
2021/12/02 10:26:19;;;;;;;4.00;1.40;;;7.40;66.00;;;;;;5035289;28;20222;-85
2021/12/02 10:28:47;;;;;;;8.20;1.60;;;7.30;64.60;;;;;;5054422;28;21030;-86
2021/12/02 10:31:21;;;;;;;2.97;1.60;;;7.30;65.50;;;;;;5053606;28;20235;-87
2021/12/02 10:33:51;;;;;;;3.03;1.38;;;7.50;65.60;;;;;;5035893;28;20667;-89
2021/12/02 10:36:31;;;;;;;2.53;1.10;;;7.80;62.60;;;;;;5036303;28;20232;-87
2021/12/02 10:39:01;;;;;;;2.50;1.27;;;7.90;61.00;;;;;;5052109;28;20201;-86
2021/12/02 10:41:31;;;;;;;2.53;1.40;;;7.70;58.40;;;;;;5054287;28;20221;-86
2021/12/02 10:44:05;;;;;;;3.03;1.05;;;7.70;59.70;;;;;;5043559;28;20317;-86
2021/12/02 10:46:32;;;;;;;3.83;1.55;;;7.70;60.00;;;;;;5031602;28;20226;-88
2021/12/02 10:48:59;;;;;;;5.03;1.33;;;7.60;62.50;;;;;;5030484;28;20203;-89
2021/12/02 10:51:43;;;;;;;2.37;1.10;;;7.50;61.60;;;;;;5024851;28;20236;-87
2021/12/02 10:54:14;;;;;;;3.63;1.50;;;7.40;63.10;;;;;;5025872;28;20650;-91
2021/12/02 10:56:46;;;;;;;3.33;1.38;;;7.40;64.20;;;;;;5031808;28;20248;-86
2021/12/02 10:59:35;;;;;;;4.95;1.48;;;7.50;65.40;;;;;;5026949;28;20668;-87
2021/12/02 11:02:05;;;;;;;2.93;1.50;;;7.50;64.40;;;;;;5031494;28;20228;-88
2021/12/02 11:04:42;;;;;;;4.38;1.35;;;7.50;65.20;;;;;;5030905;28;20230;-87
2021/12/02 11:07:13;;;;;;;2.85;1.05;;;7.60;64.00;;;;;;5030058;28;20309;-87
2021/12/02 11:09:41;;;;;;;3.28;1.50;;;7.70;64.60;;;;;;5029529;28;20299;-86
2021/12/02 11:12:19;;;;;;;2.70;1.30;;;7.60;63.10;;;;;;5033984;28;20333;-89
2021/12/02 11:15:00;;;;;;;6.20;1.35;;;7.60;63.90;;;;;;5037611;28;20227;-92
2021/12/02 11:17:31;;;;;;;3.17;1.48;;;7.50;61.30;;;;;;5029968;28;20654;-85
2021/12/02 11:20:03;;;;;;;5.30;1.17;;;7.50;62.90;;;;;;5034140;28;20560;-86
2021/12/02 11:22:31;;;;;;;3.40;1.10;;;7.50;64.80;;;;;;5031937;28;20564;-86
2021/12/02 11:24:59;;;;;;;7.43;1.42;;;7.50;62.60;;;;;;5035264;28;20199;-85
2021/12/02 11:28:05;;;;;;;3.28;1.05;;;7.60;62.90;;;;;;5037104;28;20574;-85
2021/12/02 11:30:36;;;;;;;3.25;1.50;;;7.80;61.80;;;;;;5036647;28;20229;-85
2021/12/02 11:33:05;;;;;;;4.97;1.40;;;7.90;59.90;;;;;;5031169;28;20209;-87
2021/12/02 11:35:35;;;;;;;2.95;1.13;;;8.10;60.90;;;;;;5033862;28;20685;-86
2021/12/02 11:38:06;;;;;;;1.58;1.00;;;8.20;57.60;;;;;;5031533;28;20693;-86
2021/12/02 11:40:38;;;;;;;4.22;0.98;;;8.20;57.40;;;;;;5032205;28;20227;-86
2021/12/02 11:43:06;;;;;;;3.25;1.20;;;8.30;56.90;;;;;;5035444;28;20289;-86
2021/12/02 11:45:42;;;;;;;2.70;0.80;;;8.40;55.40;;;;;;5033561;28;20227;-86
2021/12/02 11:48:12;;;;;;;2.50;0.90;;;8.30;56.40;;;;;;5039706;28;20288;-86
2021/12/02 11:50:39;;;;;;;2.38;1.00;;;8.30;55.90;;;;;;5025732;28;20222;-87
2021/12/02 11:53:06;;;;;;;2.10;0.75;;;8.10;55.40;;;;;;5029752;28;20237;-87
2021/12/02 11:55:36;;;;;;;3.50;1.00;;;8.10;56.90;;;;;;5034655;28;20237;-88
2021/12/02 11:58:05;;;;;;;1.77;0.95;;;8.20;56.30;;;;;;5033088;28;20209;-89
2021/12/02 12:00:34;;;;;;;3.58;1.20;;;8.10;55.30;;;;;;5030394;28;20305;-91
2021/12/02 12:03:04;;;;;;;1.88;1.10;;;7.90;56.00;;;;;;5027407;28;20195;-87
2021/12/02 12:05:33;;;;;;;2.53;0.95;;;8.00;56.30;;;;;;5035350;28;20602;-88
2021/12/02 12:08:01;;;;;;;2.13;1.00;;;7.80;57.10;;;;;;5044878;28;20198;-86
2021/12/02 12:10:35;;;;;;;3.88;1.15;;;7.80;57.10;;;;;;5035177;28;20199;-85
2021/12/02 12:13:56;;;;;;;1.80;1.10;;;7.90;57.00;;;;;;5041506;28;20229;-86
2021/12/02 12:16:27;;;;;;;2.47;1.20;;;8.00;55.70;;;;;;5035299;28;20226;-90
2021/12/02 12:18:55;;;;;;;4.45;1.13;;;7.90;57.30;;;;;;5037906;28;20554;-89
2021/12/02 12:21:37;;;;;;;1.75;1.27;;;7.90;57.40;;;;;;5031195;28;20676;-92
2021/12/02 12:24:06;;;;;;;5.47;1.20;;;7.90;58.10;;;;;;5034137;28;20211;-90
2021/12/02 12:26:36;;;;;;;2.35;1.05;;;7.80;56.70;;;;;;5046093;28;20645;-87
2021/12/02 12:29:29;;;;;;;4.53;1.35;;;7.80;59.80;;;;;;5046303;28;20186;-86
2021/12/02 12:32:43;;;;;;;3.25;1.20;;;7.70;58.90;;;;;;5039284;28;20623;-88
2021/12/02 12:38:23;;;;;;;2.63;1.10;;;7.70;57.50;;;;;;4984135;28;20334;-90
2021/12/02 12:40:52;;;;;;;4.15;1.05;;;7.50;58.90;;;;;;5027759;28;20199;-88
2021/12/02 12:43:30;;;;;;;2.08;0.73;;;7.60;58.20;;;;;;5034198;28;20234;-86
2021/12/02 12:48:57;;;;;;;3.58;1.30;;;7.60;59.10;;;;;;5010559;28;20209;-90
2021/12/02 12:51:35;;;;;;;2.20;1.10;;;7.50;57.60;;;;;;5026058;28;20234;-87
2021/12/02 12:54:07;;;;;;;2.55;1.25;;;7.50;58.00;;;;;;5037467;28;20221;-89
2021/12/02 12:56:38;;;;;;;3.30;1.25;;;7.40;58.30;;;;;;5039890;28;20764;-89
2021/12/02 12:59:11;;;;;;;2.57;1.30;;;7.30;59.00;;;;;;5040926;28;20650;-87
2021/12/02 13:01:40;;;;;;;2.70;1.15;;;7.20;60.00;;;;;;5034555;28;20278;-90
2021/12/02 13:04:13;;;;;;;2.17;1.20;;;7.10;61.30;;;;;;5043100;28;20205;-88
2021/12/02 13:07:09;;;;;;;2.40;1.10;;;7.20;60.60;;;;;;5039240;28;20221;-88
2021/12/02 13:09:55;;;;;;;2.83;1.20;;;7.20;61.50;;;;;;5024658;28;20241;-90
2021/12/02 13:12:29;;;;;;;3.03;1.20;;;7.20;59.90;;;;;;5028574;28;20227;-90
2021/12/02 13:14:56;;;;;;;4.17;1.37;;;7.30;58.80;;;;;;5034448;28;20229;-90
2021/12/02 13:17:42;;;;;;;1.57;1.00;;;7.30;59.90;;;;;;5031664;28;20214;-91
2021/12/02 13:20:39;;;;;;;2.43;1.30;;;7.30;59.20;;;;;;5018477;28;20641;-88
2021/12/02 13:23:36;;;;;;;1.60;1.10;;;7.20;60.00;;;;;;5030004;28;20206;-87
2021/12/02 13:26:23;;;;;;;2.70;1.10;;;7.10;60.70;;;;;;5029682;28;20306;-89
2021/12/02 13:28:54;;;;;;;2.90;1.20;;;7.00;62.30;;;;;;5030854;28;20202;-88